createdAt,value
2022-09-10T00:00:45.600Z,98250.41
2022-09-10T00:01:47.002Z,98258.88
2022-09-10T00:02:48.436Z,98247.41
2022-09-10T00:03:49.909Z,98255.53
2022-09-10T00:04:51.330Z,98243.78
2022-09-10T00:05:53.058Z,98253.00
2022-09-10T00:06:54.740Z,98245.88
2022-09-10T00:07:56.313Z,98236.63
2022-09-10T00:08:58.509Z,98242.31
2022-09-10T00:09:59.913Z,98248.84
2022-09-10T00:11:04.693Z,98238.88
2022-09-10T00:12:06.197Z,98236.50
2022-09-10T00:13:08.419Z,98238.41
2022-09-10T00:14:12.665Z,98237.28
2022-09-10T00:15:17.157Z,98231.94
2022-09-10T00:16:19.139Z,98234.31
2022-09-10T00:17:20.523Z,98237.84
2022-09-10T00:18:24.677Z,98235.50
2022-09-10T00:19:26.017Z,98234.31
2022-09-10T00:20:27.342Z,98228.50
2022-09-10T00:21:29.563Z,98234.63
2022-09-10T00:22:30.858Z,98236.50
2022-09-10T00:23:34.890Z,98239.97
2022-09-10T00:24:36.234Z,98233.53
2022-09-10T00:25:37.609Z,98237.97
2022-09-10T00:26:39.081Z,98232.63
2022-09-10T00:27:43.418Z,98229.63
2022-09-10T00:28:45.201Z,98234.38
2022-09-10T00:29:47.179Z,98237.94
2022-09-10T00:30:49.935Z,98230.28
2022-09-10T00:31:58.972Z,98233.72
2022-09-10T00:33:02.239Z,98234.06
2022-09-10T00:34:04.193Z,98230.28
2022-09-10T00:35:06.071Z,98231.84
2022-09-10T00:36:17.828Z,98236.84
2022-09-10T00:37:19.233Z,98235.28
2022-09-10T00:38:20.862Z,98235.63
2022-09-10T00:39:22.285Z,98235.97
2022-09-10T00:40:28.159Z,98243.63
2022-09-10T00:41:29.773Z,98246.09
2022-09-10T00:42:31.405Z,98243.44
2022-09-10T00:43:55.266Z,98238.88
2022-09-10T00:44:58.177Z,98237.44
2022-09-10T00:45:59.626Z,98247.00
2022-09-10T00:47:00.998Z,98243.84
2022-09-10T00:48:05.014Z,98242.78
2022-09-10T00:49:12.332Z,98242.31
2022-09-10T00:50:20.379Z,98251.09
2022-09-10T00:51:22.354Z,98249.19
2022-09-10T00:52:24.334Z,98253.44
2022-09-10T00:53:29.408Z,98256.44
2022-09-10T00:54:33.562Z,98260.34
2022-09-10T00:55:35.841Z,98258.09
2022-09-10T00:56:40.231Z,98267.22
2022-09-10T00:57:43.953Z,98249.97
2022-09-10T00:58:46.303Z,98244.19
2022-09-10T00:59:55.090Z,98249.53
2022-09-10T01:00:59.935Z,98242.41
2022-09-10T01:02:02.964Z,98229.50
2022-09-10T01:03:07.218Z,98230.97
2022-09-10T01:04:11.163Z,98238.63
2022-09-10T01:05:14.138Z,98230.28
2022-09-10T01:06:16.629Z,98233.41
2022-09-10T01:07:19.090Z,98236.75
2022-09-10T01:08:21.812Z,98241.66
2022-09-10T01:09:25.881Z,98241.31
2022-09-10T01:10:31.613Z,98246.22
2022-09-10T01:11:36.091Z,98240.41
2022-09-10T01:12:42.799Z,98239.63
2022-09-10T01:14:14.834Z,98239.63
2022-09-10T01:15:25.378Z,98250.31
2022-09-10T01:16:31.721Z,98252.63
2022-09-10T01:17:44.800Z,98254.09
2022-09-10T01:18:52.076Z,98247.31
2022-09-10T01:20:09.151Z,98250.31
2022-09-10T01:21:22.545Z,98246.22
2022-09-10T01:22:43.183Z,98243.84
2022-09-10T01:23:59.668Z,98246.63
2022-09-10T01:25:06.533Z,98244.63
2022-09-10T01:26:12.646Z,98251.78
2022-09-10T01:27:32.530Z,98252.22
2022-09-10T01:28:40.555Z,98253.75
2022-09-10T01:30:08.452Z,98253.69
2022-09-10T01:31:34.683Z,98262.22
2022-09-10T01:32:48.502Z,98266.78
2022-09-10T01:36:01.801Z,98248.34
2022-09-10T01:37:07.617Z,98259.66
2022-09-10T01:38:13.923Z,98251.63
2022-09-10T01:39:16.892Z,98247.41
2022-09-10T01:40:19.152Z,98244.63
2022-09-10T01:41:23.139Z,98244.63
2022-09-10T01:42:25.735Z,98245.75
2022-09-10T01:43:27.805Z,98238.06
2022-09-10T01:44:41.337Z,98239.53
2022-09-10T01:45:52.553Z,98243.63
2022-09-10T01:46:59.463Z,98238.97
2022-09-10T01:48:12.044Z,98243.97
2022-09-10T01:49:22.963Z,98246.63
2022-09-10T01:50:43.322Z,98249.31
2022-09-10T01:51:57.530Z,98241.66
2022-09-10T01:52:58.946Z,98248.88
2022-09-10T01:54:03.158Z,98245.75
2022-09-10T01:55:04.669Z,98243.75
2022-09-10T01:56:23.580Z,98237.31
2022-09-10T01:57:25.831Z,98237.31
2022-09-10T01:58:34.497Z,98233.09
2022-09-10T01:59:41.372Z,98240.63
2022-09-10T02:00:46.840Z,98238.66
2022-09-10T02:01:51.740Z,98233.31
2022-09-10T02:02:53.136Z,98229.53
2022-09-10T02:03:59.646Z,98231.44
2022-09-10T02:05:02.336Z,98235.53
2022-09-10T02:06:05.886Z,98231.75
2022-09-10T02:07:11.215Z,98235.53
2022-09-10T02:08:16.580Z,98235.19
2022-09-10T02:09:18.800Z,98229.06
2022-09-10T02:10:20.795Z,98229.19
2022-09-10T02:11:23.135Z,98234.88
2022-09-10T02:12:25.788Z,98236.75
2022-09-10T02:13:39.147Z,98235.19
2022-09-10T02:14:59.154Z,98233.31
2022-09-10T02:16:33.322Z,98232.84
2022-09-10T02:17:36.331Z,98240.88
2022-09-10T02:18:39.004Z,98237.06
2022-09-10T02:19:41.041Z,98232.50
2022-09-10T02:20:42.526Z,98230.66
2022-09-10T02:21:44.075Z,98237.06
2022-09-10T02:22:50.092Z,98230.97
2022-09-10T02:23:55.180Z,98230.97
2022-09-10T02:24:56.553Z,98233.63
2022-09-10T02:25:58.351Z,98235.19
2022-09-10T02:27:02.721Z,98228.63
2022-09-10T02:28:05.484Z,98235.53
2022-09-10T02:29:08.405Z,98224.06
2022-09-10T02:30:10.553Z,98233.63
2022-09-10T02:31:12.728Z,98234.09
2022-09-10T02:32:14.223Z,98223.41
2022-09-10T02:33:15.635Z,98229.97
2022-09-10T02:34:17.028Z,98227.75
2022-09-10T02:35:20.951Z,98236.53
2022-09-10T02:36:24.008Z,98231.19
2022-09-10T02:37:25.423Z,98235.06
2022-09-10T02:38:27.074Z,98238.50
2022-09-10T02:39:29.686Z,98231.28
2022-09-10T02:40:31.527Z,98225.94
2022-09-10T02:41:33.035Z,98233.97
2022-09-10T02:42:35.465Z,98241.97
2022-09-10T02:43:36.869Z,98244.31
2022-09-10T02:44:38.352Z,98234.75
2022-09-10T02:45:40.472Z,98233.19
2022-09-10T02:46:41.957Z,98233.09
2022-09-10T02:47:43.344Z,98230.44
2022-09-10T02:48:44.724Z,98226.19
2022-09-10T02:49:46.062Z,98228.84
2022-09-10T02:50:47.522Z,98225.53
2022-09-10T02:51:49.013Z,98225.53
2022-09-10T02:52:50.344Z,98225.88
2022-09-10T02:53:52.383Z,98225.41
2022-09-10T02:54:54.687Z,98227.53
2022-09-10T02:55:56.062Z,98221.72
2022-09-10T02:56:57.478Z,98227.06
2022-09-10T02:57:59.034Z,98224.41
2022-09-10T02:59:00.571Z,98227.53
2022-09-10T03:00:02.987Z,98222.19
2022-09-10T03:01:08.190Z,98223.63
2022-09-10T03:02:09.787Z,98225.53
2022-09-10T03:03:12.555Z,98221.72
2022-09-10T03:04:14.851Z,98220.19
2022-09-10T03:05:16.659Z,98218.63
2022-09-10T03:06:18.111Z,98219.06
2022-09-10T03:07:19.484Z,98216.41
2022-09-10T03:08:20.933Z,98215.19
2022-09-10T03:09:22.916Z,98215.63
2022-09-10T03:10:24.341Z,98217.16
2022-09-10T03:11:25.700Z,98213.72
2022-09-10T03:12:27.116Z,98216.41
2022-09-10T03:13:29.215Z,98215.63
2022-09-10T03:14:32.632Z,98213.06
2022-09-10T03:15:35.190Z,98211.06
2022-09-10T03:16:36.644Z,98214.84
2022-09-10T03:17:40.756Z,98214.50
2022-09-10T03:18:42.545Z,98209.28
2022-09-10T03:19:44.452Z,98214.97
2022-09-10T03:20:45.874Z,98219.97
2022-09-10T03:21:47.203Z,98208.84
2022-09-10T03:22:49.355Z,98218.06
2022-09-10T03:23:51.990Z,98211.94
2022-09-10T03:25:00.062Z,98214.19
2022-09-10T03:26:01.452Z,98214.50
2022-09-10T03:27:02.948Z,98219.53
2022-09-10T03:28:04.323Z,98216.84
2022-09-10T03:29:06.134Z,98220.28
2022-09-10T03:30:12.855Z,98218.28
2022-09-10T03:31:14.604Z,98215.28
2022-09-10T03:32:19.593Z,98224.88
2022-09-10T03:33:20.980Z,98223.75
2022-09-10T03:34:22.348Z,98219.19
2022-09-10T03:35:23.864Z,98216.84
2022-09-10T03:36:25.592Z,98221.84
2022-09-10T03:37:26.983Z,98218.84
2022-09-10T03:38:28.462Z,98221.84
2022-09-10T03:39:29.882Z,98214.97
2022-09-10T03:40:31.330Z,98214.97
2022-09-10T03:41:32.748Z,98213.06
2022-09-10T03:42:34.955Z,98210.41
2022-09-10T03:43:36.397Z,98216.84
2022-09-10T03:44:41.760Z,98223.28
2022-09-10T03:45:43.289Z,98216.84
2022-09-10T03:46:45.343Z,98215.72
2022-09-10T03:47:48.152Z,98210.75
2022-09-10T03:48:54.652Z,98207.28
2022-09-10T03:49:58.577Z,98214.97
2022-09-10T03:51:00.170Z,98211.94
2022-09-10T03:52:02.760Z,98206.97
2022-09-10T03:53:06.639Z,98215.72
2022-09-10T03:54:08.339Z,98207.38
2022-09-10T03:55:09.787Z,98213.97
2022-09-10T03:56:11.220Z,98214.84
2022-09-10T03:57:13.704Z,98213.63
2022-09-10T03:58:16.143Z,98212.84
2022-09-10T03:59:17.582Z,98214.03
2022-09-10T04:00:20.452Z,98211.38
2022-09-10T04:01:23.414Z,98207.94
2022-09-10T04:02:25.495Z,98211.72
2022-09-10T04:03:26.914Z,98212.59
2022-09-10T04:04:28.268Z,98213.84
2022-09-10T04:05:29.673Z,98215.38
2022-09-10T04:06:31.037Z,98204.59
2022-09-10T04:07:32.483Z,98212.94
2022-09-10T04:08:33.953Z,98201.94
2022-09-10T04:09:35.424Z,98205.72
2022-09-10T04:10:37.511Z,98211.84
2022-09-10T04:11:38.895Z,98207.28
2022-09-10T04:12:41.436Z,98204.59
2022-09-10T04:13:42.908Z,98207.63
2022-09-10T04:14:45.771Z,98209.94
2022-09-10T04:15:49.254Z,98212.25
2022-09-10T04:16:50.710Z,98209.28
2022-09-10T04:17:53.270Z,98215.38
2022-09-10T04:18:57.016Z,98216.94
2022-09-10T04:19:58.384Z,98212.38
2022-09-10T04:20:59.782Z,98206.91
2022-09-10T04:22:01.249Z,98218.84
2022-09-10T04:23:03.414Z,98216.50
2022-09-10T04:24:06.832Z,98218.06
2022-09-10T04:25:08.625Z,98218.06
2022-09-10T04:26:12.557Z,98214.63
2022-09-10T04:27:14.374Z,98226.38
2022-09-10T04:28:15.809Z,98214.84
2022-09-10T04:29:19.484Z,98220.97
2022-09-10T04:30:21.027Z,98224.41
2022-09-10T04:31:22.492Z,98219.84
2022-09-10T04:32:26.376Z,98217.06
2022-09-10T04:33:27.718Z,98223.16
2022-09-10T04:34:29.380Z,98217.84
2022-09-10T04:35:30.885Z,98220.84
2022-09-10T04:36:33.657Z,98219.59
2022-09-10T04:37:36.490Z,98218.06
2022-09-10T04:38:38.456Z,98225.75
2022-09-10T04:39:39.909Z,98228.72
2022-09-10T04:40:41.278Z,98226.84
2022-09-10T04:41:43.319Z,98223.09
2022-09-10T04:42:44.876Z,98229.28
2022-09-10T04:43:46.682Z,98228.84
2022-09-10T04:44:51.007Z,98233.41
2022-09-10T04:45:53.876Z,98227.31
2022-09-10T04:46:55.934Z,98224.16
2022-09-10T04:47:57.302Z,98220.41
2022-09-10T04:48:59.160Z,98226.19
2022-09-10T04:50:01.178Z,98225.41
2022-09-10T04:51:18.377Z,98231.09
2022-09-10T04:52:22.487Z,98234.31
2022-09-10T04:53:25.002Z,98237.28
2022-09-10T04:54:26.415Z,98233.84
2022-09-10T04:55:30.112Z,98233.19
2022-09-10T04:56:31.654Z,98229.75
2022-09-10T04:57:33.499Z,98233.53
2022-09-10T04:58:38.648Z,98229.75
2022-09-10T04:59:40.801Z,98236.97
2022-09-10T05:00:42.480Z,98236.75
2022-09-10T05:01:43.899Z,98245.06
2022-09-10T05:02:45.342Z,98240.53
2022-09-10T05:03:47.042Z,98239.72
2022-09-10T05:04:48.844Z,98248.53
2022-09-10T05:05:50.245Z,98244.63
2022-09-10T05:06:51.608Z,98249.31
2022-09-10T05:43:58.464Z,98248.53
2022-09-10T05:45:01.150Z,98237.63
2022-09-10T05:46:03.507Z,98241.53
2022-09-10T05:47:05.385Z,98240.72
2022-09-10T05:48:07.048Z,98235.72
2022-09-10T05:49:08.820Z,98233.41
2022-09-10T05:50:10.902Z,98240.28
2022-09-10T05:51:12.779Z,98242.31
2022-09-10T05:52:17.385Z,98236.19
2022-09-10T05:53:19.008Z,98232.72
2022-09-10T05:54:20.335Z,98233.06
2022-09-10T05:55:22.246Z,98239.94
2022-09-10T05:56:23.907Z,98239.94
2022-09-10T05:57:25.399Z,98232.81
2022-09-10T05:58:26.828Z,98232.81
2022-09-10T05:59:28.194Z,98239.16
2022-09-10T06:00:29.740Z,98236.16
2022-09-10T06:01:34.396Z,98237.25
2022-09-10T06:02:38.709Z,98237.25
2022-09-10T06:03:40.884Z,98246.06
2022-09-10T06:04:42.219Z,98243.38
2022-09-10T06:05:50.181Z,98252.16
2022-09-10T06:06:53.006Z,98250.63
2022-09-10T06:07:55.078Z,98249.16
2022-09-10T06:08:56.492Z,98248.72
2022-09-10T06:10:12.235Z,98253.41
2022-09-10T06:11:16.887Z,98247.28
2022-09-10T06:12:22.397Z,98259.16
2022-09-10T06:13:24.210Z,98254.59
2022-09-10T06:14:25.576Z,98260.28
2022-09-10T06:15:27.979Z,98259.16
2022-09-10T06:16:29.331Z,98261.84
2022-09-10T06:17:31.259Z,98258.03
2022-09-10T06:18:32.611Z,98261.19
2022-09-10T06:19:35.422Z,98262.72
2022-09-10T06:20:36.851Z,98264.63
2022-09-10T06:21:39.840Z,98261.25
2022-09-10T06:22:41.239Z,98263.16
2022-09-10T06:23:43.922Z,98263.16
2022-09-10T06:24:45.490Z,98265.50
2022-09-10T06:25:46.881Z,98265.16
2022-09-10T06:26:49.017Z,98270.63
2022-09-10T06:27:50.946Z,98272.94
2022-09-10T06:28:52.561Z,98274.47
2022-09-10T06:29:53.949Z,98268.03
2022-09-10T06:30:55.336Z,98271.91
2022-09-10T06:31:56.808Z,98278.47
2022-09-10T06:32:58.583Z,98273.56
2022-09-10T06:34:01.810Z,98275.25
2022-09-10T06:35:05.211Z,98272.09
2022-09-10T06:36:06.772Z,98270.66
2022-09-10T06:37:08.294Z,98276.44
2022-09-10T06:38:12.204Z,98264.97
2022-09-10T06:39:13.608Z,98271.53
2022-09-10T06:40:23.173Z,98271.19
2022-09-10T06:41:24.814Z,98271.97
2022-09-10T06:42:40.441Z,98273.19
2022-09-10T06:43:47.667Z,98272.84
2022-09-10T06:45:03.113Z,98274.16
2022-09-10T06:49:25.654Z,98282.47
2022-09-10T06:50:27.171Z,98278.34
2022-09-10T06:51:31.731Z,98279.22
2022-09-10T06:52:33.095Z,98278.44
2022-09-10T06:53:39.307Z,98284.69
2022-09-10T06:54:40.728Z,98287.41
2022-09-10T06:55:53.815Z,98288.31
2022-09-10T06:56:55.675Z,98283.47
2022-09-10T06:57:59.035Z,98288.25
2022-09-10T06:59:02.613Z,98286.56
2022-09-10T07:00:10.074Z,98291.53
2022-09-10T07:01:14.530Z,98282.25
2022-09-10T07:02:19.406Z,98286.66
2022-09-10T07:03:21.418Z,98287.53
2022-09-10T07:04:23.450Z,98286.91
2022-09-10T07:05:24.914Z,98287.38
2022-09-10T07:06:27.180Z,98290.91
2022-09-10T07:07:34.253Z,98294.50
2022-09-10T07:08:37.389Z,98298.41
2022-09-10T07:09:38.778Z,98294.97
2022-09-10T07:10:42.028Z,98294.16
2022-09-10T07:11:43.549Z,98294.59
2022-09-10T07:12:47.035Z,98293.75
2022-09-10T07:13:49.965Z,98296.41
2022-09-10T07:14:51.339Z,98298.31
2022-09-10T07:15:54.223Z,98302.13
2022-09-10T07:16:56.319Z,98299.00
2022-09-10T07:17:59.841Z,98302.38
2022-09-10T07:19:01.568Z,98301.16
2022-09-10T07:20:13.504Z,98305.38
2022-09-10T07:21:25.087Z,98308.84
2022-09-10T07:22:26.886Z,98316.88
2022-09-10T07:23:28.252Z,98319.03
2022-09-10T07:24:29.880Z,98314.81
2022-09-10T07:25:53.824Z,98314.38
2022-09-10T07:27:09.676Z,98310.69
2022-09-10T07:28:16.131Z,98313.09
2022-09-10T07:29:20.314Z,98309.72
2022-09-10T07:30:21.836Z,98310.56
2022-09-10T07:31:31.441Z,98317.22
2022-09-10T07:32:35.896Z,98318.84
2022-09-10T07:33:46.126Z,98321.28
2022-09-10T07:34:48.171Z,98319.81
2022-09-10T07:35:50.515Z,98321.81
2022-09-10T07:36:52.755Z,98316.19
2022-09-10T07:37:55.579Z,98326.53
2022-09-10T07:38:57.605Z,98326.63
2022-09-10T07:39:59.560Z,98327.16
2022-09-10T07:41:02.273Z,98326.63
2022-09-10T07:42:03.734Z,98330.41
2022-09-10T07:43:09.471Z,98325.78
2022-09-10T07:44:11.215Z,98335.63
2022-09-10T07:45:16.385Z,98331.13
2022-09-10T07:46:19.753Z,98333.81
2022-09-10T07:47:22.905Z,98335.34
2022-09-10T07:48:24.321Z,98335.78
2022-09-10T07:49:25.717Z,98339.25
2022-09-10T07:50:27.136Z,98341.13
2022-09-10T07:51:30.032Z,98340.03
2022-09-10T07:52:37.160Z,98340.81
2022-09-10T07:53:44.469Z,98343.13
2022-09-10T07:54:52.116Z,98345.66
2022-09-10T07:55:58.916Z,98344.00
2022-09-10T07:57:01.357Z,98335.19
2022-09-10T07:58:03.043Z,98334.06
2022-09-10T07:59:05.792Z,98337.63
2022-09-10T08:00:14.780Z,98346.75
2022-09-10T08:01:25.402Z,98343.47
2022-09-10T08:02:27.026Z,98342.00
2022-09-10T08:03:34.460Z,98345.13
2022-09-10T08:04:37.091Z,98342.84
2022-09-10T08:05:41.769Z,98344.09
2022-09-10T08:06:43.242Z,98343.03
2022-09-10T08:07:45.016Z,98343.19
2022-09-10T08:08:46.320Z,98344.06
2022-09-10T08:09:48.844Z,98347.66
2022-09-10T08:10:52.440Z,98350.94
2022-09-10T08:11:54.025Z,98349.50
2022-09-10T08:12:57.769Z,98341.19
2022-09-10T08:13:59.228Z,98351.63
2022-09-10T08:15:03.165Z,98348.25
2022-09-10T08:16:08.713Z,98347.88
2022-09-10T08:17:10.212Z,98356.28
2022-09-10T08:18:15.913Z,98351.44
2022-09-10T08:19:26.946Z,98355.72
2022-09-10T08:20:28.387Z,98350.09
2022-09-10T08:21:30.093Z,98356.31
2022-09-10T08:22:33.374Z,98355.22
2022-09-10T08:23:35.845Z,98358.47
2022-09-10T08:24:37.248Z,98352.16
2022-09-10T08:25:38.859Z,98352.28
2022-09-10T08:26:40.224Z,98361.66
2022-09-10T08:27:41.620Z,98362.66
2022-09-10T08:28:43.427Z,98362.91
2022-09-10T08:29:45.452Z,98361.94
2022-09-10T08:31:00.178Z,98365.09
2022-09-10T08:32:01.962Z,98354.97
2022-09-10T08:33:05.993Z,98359.75
2022-09-10T08:34:10.806Z,98358.38
2022-09-10T08:35:14.391Z,98358.19
2022-09-10T08:36:16.891Z,98354.97
2022-09-10T08:37:18.458Z,98360.41
2022-09-10T08:38:19.875Z,98356.81
2022-09-10T08:39:21.491Z,98354.47
2022-09-10T08:40:22.967Z,98355.88
2022-09-10T08:41:30.949Z,98347.28
2022-09-10T08:42:39.268Z,98353.03
2022-09-10T08:43:46.844Z,98353.84
2022-09-10T08:44:52.580Z,98352.31
2022-09-10T08:45:58.645Z,98359.28
2022-09-10T08:47:03.003Z,98355.75
2022-09-10T08:48:15.270Z,98361.56
2022-09-10T08:49:24.201Z,98357.03
2022-09-10T08:50:39.871Z,98356.50
2022-09-10T08:51:52.363Z,98360.59
2022-09-10T08:53:12.471Z,98369.78
2022-09-10T08:54:16.872Z,98372.03
2022-09-10T08:55:18.237Z,98373.84
2022-09-10T08:56:22.462Z,98367.31
2022-09-10T08:57:33.306Z,98374.72
2022-09-10T08:58:37.628Z,98367.44
2022-09-10T08:59:42.519Z,98373.09
2022-09-10T09:00:43.940Z,98376.53
2022-09-10T09:01:54.316Z,98367.97
2022-09-10T09:03:01.063Z,98372.81
2022-09-10T09:04:06.419Z,98368.63
2022-09-10T09:05:14.507Z,98379.06
2022-09-10T09:06:29.842Z,98378.06
2022-09-10T09:07:34.642Z,98375.91
2022-09-10T09:08:39.210Z,98377.47
2022-09-10T09:09:43.137Z,98372.25
2022-09-10T09:10:53.764Z,98366.94
2022-09-10T09:12:02.799Z,98375.53
2022-09-10T09:13:22.077Z,98371.75
2022-09-10T09:14:26.109Z,98371.38
2022-09-10T09:15:52.053Z,98373.03
2022-09-10T09:17:01.740Z,98368.47
2022-09-10T09:18:05.844Z,98363.25
2022-09-10T09:19:07.164Z,98367.41
2022-09-10T09:20:12.259Z,98371.00
2022-09-10T09:21:17.054Z,98371.81
2022-09-10T09:22:19.866Z,98364.47
2022-09-10T09:23:24.501Z,98367.47
2022-09-10T09:24:45.462Z,98368.94
2022-09-10T09:25:50.304Z,98370.47
2022-09-10T09:26:57.017Z,98371.69
2022-09-10T09:27:59.172Z,98366.69
2022-09-10T09:29:13.981Z,98367.16
2022-09-10T09:30:18.171Z,98360.41
2022-09-10T09:31:25.938Z,98359.72
2022-09-10T09:32:33.156Z,98359.28
2022-09-10T09:33:35.258Z,98355.19
2022-09-10T09:34:41.592Z,98361.41
2022-09-10T09:35:52.805Z,98361.13
2022-09-10T09:36:57.410Z,98355.44
2022-09-10T09:38:00.243Z,98355.94
2022-09-10T09:39:02.571Z,98355.19
2022-09-10T09:40:07.537Z,98351.34
2022-09-10T09:41:25.386Z,98354.41
2022-09-10T09:42:46.060Z,98356.72
2022-09-10T09:43:58.131Z,98360.19
2022-09-10T09:45:10.374Z,98364.06
2022-09-10T09:46:15.894Z,98363.50
2022-09-10T09:47:20.264Z,98366.59
2022-09-10T09:48:24.521Z,98362.69
2022-09-10T09:49:27.957Z,98358.47
2022-09-10T09:50:31.781Z,98370.66
2022-09-10T09:51:33.208Z,98360.38
2022-09-10T09:52:35.244Z,98363.41
2022-09-10T09:53:36.791Z,98364.94
2022-09-10T09:55:12.612Z,98367.66
2022-09-10T09:56:05.087Z,98368.47
2022-09-10T09:57:14.901Z,98365.31
2022-09-10T09:58:22.586Z,98365.28
2022-09-10T09:59:26.797Z,98362.19
2022-09-10T10:00:32.785Z,98368.94
2022-09-10T10:01:37.063Z,98368.53
2022-09-10T10:02:38.493Z,98365.13
2022-09-10T10:03:51.038Z,98365.78
2022-09-10T10:05:06.108Z,98368.41
2022-09-10T10:06:09.022Z,98368.97
2022-09-10T10:07:10.648Z,98374.72
2022-09-10T10:08:30.350Z,98378.53
2022-09-10T10:09:33.359Z,98383.84
2022-09-10T10:10:34.740Z,98383.78
2022-09-10T10:11:42.303Z,98383.28
2022-09-10T10:12:49.662Z,98385.03
2022-09-10T10:13:51.190Z,98376.25
2022-09-10T10:14:52.860Z,98384.81
2022-09-10T10:15:54.414Z,98382.00
2022-09-10T10:17:00.370Z,98377.97
2022-09-10T10:18:22.159Z,98376.97
2022-09-10T10:19:31.432Z,98389.53
2022-09-10T10:20:36.252Z,98383.31
2022-09-10T10:21:37.636Z,98374.75
2022-09-10T10:22:40.109Z,98370.41
2022-09-10T10:23:41.860Z,98373.69
2022-09-10T10:24:44.105Z,98371.06
2022-09-10T10:25:45.507Z,98372.53
2022-09-10T10:26:47.722Z,98370.34
2022-09-10T10:27:49.137Z,98373.53
2022-09-10T10:28:51.972Z,98373.56
2022-09-10T10:29:53.470Z,98367.84
2022-09-10T10:30:56.476Z,98374.56
2022-09-10T10:31:57.867Z,98365.94
2022-09-10T10:32:59.934Z,98371.44
2022-09-10T10:34:04.188Z,98363.84
2022-09-10T10:35:05.646Z,98363.09
2022-09-10T10:36:07.182Z,98358.47
2022-09-10T10:37:26.943Z,98357.03
2022-09-10T10:38:37.895Z,98360.72
2022-09-10T10:39:45.373Z,98363.00
2022-09-10T10:40:54.365Z,98360.69
2022-09-10T10:41:55.733Z,98362.50
2022-09-10T10:42:57.120Z,98352.41
2022-09-10T10:44:01.371Z,98356.22
2022-09-10T10:45:05.707Z,98350.56
2022-09-10T10:46:30.410Z,98345.91
2022-09-10T10:47:43.980Z,98354.44
2022-09-10T10:49:12.616Z,98351.38
2022-09-10T10:50:24.694Z,98352.13
2022-09-10T10:51:26.032Z,98354.88
2022-09-10T10:52:27.359Z,98350.44
2022-09-10T10:53:31.891Z,98353.44
2022-09-10T10:54:39.126Z,98352.66
2022-09-10T10:56:02.669Z,98348.59
2022-09-10T10:57:13.651Z,98353.72
2022-09-10T10:58:33.414Z,98346.78
2022-09-10T10:59:43.876Z,98349.88
2022-09-10T11:01:03.771Z,98359.91
2022-09-10T11:02:17.111Z,98348.78
2022-09-10T11:03:32.091Z,98341.16
2022-09-10T11:05:02.606Z,98345.88
2022-09-10T11:06:07.658Z,98349.19
2022-09-10T11:07:38.271Z,98349.31
2022-09-10T11:08:45.980Z,98341.44
2022-09-10T11:10:00.085Z,98343.81
2022-09-10T11:11:18.638Z,98338.22
2022-09-10T11:12:27.047Z,98346.00
2022-09-10T11:13:37.159Z,98337.28
2022-09-10T11:14:48.838Z,98338.03
2022-09-10T11:15:54.756Z,98335.69
2022-09-10T11:16:59.017Z,98343.00
2022-09-10T11:22:30.611Z,98334.00
2022-09-10T11:23:48.268Z,98338.66
2022-09-10T11:43:47.283Z,98318.72
2022-09-10T11:45:00.615Z,98321.81
2022-09-10T11:46:03.787Z,98322.28
2022-09-10T11:47:23.845Z,98317.22
2022-09-10T11:48:36.097Z,98325.38
2022-09-10T11:49:57.178Z,98319.31
2022-09-10T11:51:02.704Z,98314.97
2022-09-10T11:52:04.118Z,98319.63
2022-09-10T11:53:05.607Z,98313.06
2022-09-10T11:54:12.294Z,98324.22
2022-09-10T11:55:15.004Z,98314.66
2022-09-10T11:56:23.895Z,98316.22
2022-09-10T11:57:33.313Z,98314.72
2022-09-10T11:58:40.720Z,98316.63
2022-09-10T12:00:00.888Z,98302.44
2022-09-10T12:01:18.987Z,98305.22
2022-09-10T12:02:43.290Z,98311.44
2022-09-10T12:04:06.600Z,98306.44
2022-09-10T12:05:19.682Z,98311.50
2022-09-10T12:06:25.835Z,98305.69
2022-09-10T12:07:47.566Z,98314.97
2022-09-10T12:09:02.051Z,98308.38
2022-09-10T12:10:12.276Z,98304.13
2022-09-10T12:11:21.775Z,98309.13
2022-09-10T12:12:29.055Z,98307.22
2022-09-10T12:13:30.643Z,98302.22
2022-09-10T12:14:32.141Z,98318.00
2022-09-10T12:15:34.165Z,98308.78
2022-09-10T12:16:42.850Z,98308.34
2022-09-10T12:17:46.793Z,98305.69
2022-09-10T12:18:50.167Z,98309.50
2022-09-10T12:19:53.513Z,98305.63
2022-09-10T12:20:57.550Z,98303.34
2022-09-10T12:22:01.955Z,98314.50
2022-09-10T12:23:03.619Z,98310.16
2022-09-10T12:24:23.846Z,98310.53
2022-09-10T12:25:30.482Z,98302.03
2022-09-10T12:26:42.784Z,98306.63
2022-09-10T12:27:44.229Z,98306.19
2022-09-10T12:28:45.592Z,98307.34
2022-09-10T12:29:46.994Z,98306.91
2022-09-10T12:30:48.488Z,98307.31
2022-09-10T12:32:12.568Z,98318.00
2022-09-10T12:33:16.926Z,98310.19
2022-09-10T12:34:19.168Z,98309.38
2022-09-10T12:35:29.582Z,98319.31
2022-09-10T12:36:30.940Z,98311.09
2022-09-10T12:37:32.704Z,98311.78
2022-09-10T12:38:42.930Z,98309.84
2022-09-10T12:39:44.497Z,98307.53
2022-09-10T12:40:46.467Z,98312.91
2022-09-10T12:41:47.790Z,98306.06
2022-09-10T12:42:49.431Z,98308.41
2022-09-10T12:43:57.612Z,98305.84
2022-09-10T12:44:59.253Z,98300.59
2022-09-10T12:46:01.915Z,98302.56
2022-09-10T12:47:11.994Z,98301.13
2022-09-10T12:48:16.525Z,98299.69
2022-09-10T12:49:17.971Z,98295.91
2022-09-10T12:50:30.059Z,98292.09
2022-09-10T12:51:50.110Z,98293.31
2022-09-10T12:53:00.486Z,98289.47
2022-09-10T12:54:09.569Z,98291.00
2022-09-10T12:55:20.552Z,98284.06
2022-09-10T12:56:35.183Z,98276.34
2022-09-10T12:57:42.566Z,98291.38
2022-09-10T12:58:52.021Z,98285.16
2022-09-10T13:00:12.001Z,98285.16
2022-09-10T13:01:24.177Z,98285.56
2022-09-10T13:02:41.970Z,98284.03
2022-09-10T13:03:49.284Z,98285.56
2022-09-10T13:04:55.270Z,98287.88
2022-09-10T13:05:59.070Z,98284.44
2022-09-10T13:07:05.494Z,98284.81
2022-09-10T13:08:06.821Z,98289.06
2022-09-10T13:09:20.387Z,98289.47
2022-09-10T13:10:28.531Z,98284.47
2022-09-10T13:11:33.699Z,98285.66
2022-09-10T13:12:36.241Z,98287.19
2022-09-10T13:13:37.701Z,98281.75
2022-09-10T13:14:40.628Z,98283.34
2022-09-10T13:15:49.394Z,98279.09
2022-09-10T13:16:50.772Z,98281.78
2022-09-10T13:17:52.135Z,98283.72
2022-09-10T13:19:11.965Z,98278.69
2022-09-10T13:20:14.525Z,98275.97
2022-09-10T13:21:25.074Z,98281.34
2022-09-10T13:22:30.451Z,98275.19
2022-09-10T13:23:43.903Z,98282.13
2022-09-10T13:25:08.310Z,98275.97
2022-09-10T13:26:28.276Z,98281.00
2022-09-10T13:27:40.167Z,98276.38
2022-09-10T13:28:41.526Z,98277.91
2022-09-10T13:29:45.271Z,98276.00
2022-09-10T13:30:49.987Z,98272.53
2022-09-10T13:32:02.031Z,98276.00
2022-09-10T13:33:07.640Z,98279.88
2022-09-10T13:34:15.122Z,98280.28
2022-09-10T13:35:28.238Z,98275.25
2022-09-10T13:36:35.276Z,98269.06
2022-09-10T13:37:46.455Z,98276.00
2022-09-10T13:39:02.724Z,98276.00
2022-09-10T13:40:24.250Z,98272.13
2022-09-10T13:41:40.618Z,98276.75
2022-09-10T13:42:59.179Z,98277.16
2022-09-10T13:44:19.369Z,98272.13
2022-09-10T13:45:20.767Z,98274.81
2022-09-10T13:46:30.990Z,98269.75
2022-09-10T13:47:39.977Z,98275.53
2022-09-10T13:48:48.953Z,98277.81
2022-09-10T13:49:50.294Z,98270.06
2022-09-10T13:50:57.741Z,98281.19
2022-09-10T13:52:01.266Z,98281.53
2022-09-10T13:53:04.859Z,98281.13
2022-09-10T13:54:08.878Z,98281.81